sensor_id;sensor_type;location;lat;lon;timestamp;pressure;altitude;pressure_sealevel;temperature;humidity
69219;BME280;56232;53.384;-2.732;2022-09-19T00:02:06;101963.90;;;13.28;41.38
69219;BME280;56232;53.384;-2.732;2022-09-19T00:04:32;101965.16;;;13.91;41.33
69219;BME280;56232;53.384;-2.732;2022-09-19T00:06:58;101964.37;;;13.40;41.36
69219;BME280;56232;53.384;-2.732;2022-09-19T00:09:24;101967.02;;;13.94;41.10
69219;BME280;56232;53.384;-2.732;2022-09-19T00:11:49;101967.32;;;13.40;40.95
69219;BME280;56232;53.384;-2.732;2022-09-19T00:14:16;101968.14;;;13.20;41.13
69219;BME280;56232;53.384;-2.732;2022-09-19T00:16:41;101964.53;;;13.04;41.01
69219;BME280;56232;53.384;-2.732;2022-09-19T00:19:06;101965.11;;;13.87;40.96
69219;BME280;56232;53.384;-2.732;2022-09-19T00:21:33;101967.71;;;13.69;41.20
69219;BME280;56232;53.384;-2.732;2022-09-19T00:23:57;101969.18;;;12.72;41.45
69219;BME280;56232;53.384;-2.732;2022-09-19T00:26:22;101969.40;;;13.14;41.84
69219;BME280;56232;53.384;-2.732;2022-09-19T00:28:47;101970.29;;;12.75;41.77
69219;BME280;56232;53.384;-2.732;2022-09-19T00:31:15;101971.76;;;13.30;41.60
69219;BME280;56232;53.384;-2.732;2022-09-19T00:33:38;101974.70;;;13.92;41.62
69219;BME280;56232;53.384;-2.732;2022-09-19T00:36:04;101976.74;;;13.51;41.66
69219;BME280;56232;53.384;-2.732;2022-09-19T00:38:30;101978.10;;;12.98;41.72
69219;BME280;56232;53.384;-2.732;2022-09-19T00:40:57;101982.36;;;12.99;41.77
69219;BME280;56232;53.384;-2.732;2022-09-19T00:43:23;101983.88;;;13.05;41.70
69219;BME280;56232;53.384;-2.732;2022-09-19T00:45:47;101984.48;;;13.09;41.89
69219;BME280;56232;53.384;-2.732;2022-09-19T00:48:13;101985.33;;;13.63;41.75
69219;BME280;56232;53.384;-2.732;2022-09-19T00:50:38;101987.14;;;13.28;41.71
69219;BME280;56232;53.384;-2.732;2022-09-19T00:53:07;101983.01;;;13.78;41.62
69219;BME280;56232;53.384;-2.732;2022-09-19T00:55:29;101983.04;;;13.65;41.58
69219;BME280;56232;53.384;-2.732;2022-09-19T00:58:01;101982.41;;;12.92;41.86
69219;BME280;56232;53.384;-2.732;2022-09-19T01:00:20;101984.56;;;12.75;41.79
69219;BME280;56232;53.384;-2.732;2022-09-19T01:02:46;101987.48;;;13.09;42.03
69219;BME280;56232;53.384;-2.732;2022-09-19T01:05:11;101990.09;;;13.47;42.43
69219;BME280;56232;53.384;-2.732;2022-09-19T01:07:45;101985.50;;;12.49;41.60
69219;BME280;56232;53.384;-2.732;2022-09-19T01:10:08;101986.74;;;13.28;41.79
69219;BME280;56232;53.384;-2.732;2022-09-19T01:12:38;101983.83;;;12.78;42.08
69219;BME280;56232;53.384;-2.732;2022-09-19T01:15:06;101985.26;;;13.18;42.23
69219;BME280;56232;53.384;-2.732;2022-09-19T01:17:23;101989.21;;;12.30;42.66
69219;BME280;56232;53.384;-2.732;2022-09-19T01:22:16;101985.21;;;12.74;42.25
69219;BME280;56232;53.384;-2.732;2022-09-19T01:24:45;101985.40;;;13.76;42.10
69219;BME280;56232;53.384;-2.732;2022-09-19T01:27:21;101985.50;;;13.29;42.13
69219;BME280;56232;53.384;-2.732;2022-09-19T01:29:32;101988.40;;;12.71;42.47
69219;BME280;56232;53.384;-2.732;2022-09-19T01:31:57;101987.03;;;13.67;42.84
69219;BME280;56232;53.384;-2.732;2022-09-19T01:34:23;101990.51;;;13.11;43.04
69219;BME280;56232;53.384;-2.732;2022-09-19T01:36:47;101990.15;;;12.64;43.09
69219;BME280;56232;53.384;-2.732;2022-09-19T01:39:12;101991.00;;;13.23;42.60
69219;BME280;56232;53.384;-2.732;2022-09-19T01:41:37;101990.56;;;13.84;42.54
69219;BME280;56232;53.384;-2.732;2022-09-19T01:44:04;101989.02;;;13.48;42.47
69219;BME280;56232;53.384;-2.732;2022-09-19T01:46:37;101987.34;;;13.50;42.46
69219;BME280;56232;53.384;-2.732;2022-09-19T01:48:56;101985.81;;;13.98;42.60
69219;BME280;56232;53.384;-2.732;2022-09-19T01:51:25;101989.14;;;13.05;42.73
69219;BME280;56232;53.384;-2.732;2022-09-19T01:53:56;101986.36;;;12.94;42.34
69219;BME280;56232;53.384;-2.732;2022-09-19T01:56:13;101984.98;;;12.59;42.75
69219;BME280;56232;53.384;-2.732;2022-09-19T01:58:40;101983.64;;;13.40;42.76
69219;BME280;56232;53.384;-2.732;2022-09-19T02:01:07;101983.06;;;13.19;42.49
69219;BME280;56232;53.384;-2.732;2022-09-19T02:03:34;101980.92;;;12.90;43.10
69219;BME280;56232;53.384;-2.732;2022-09-19T02:05:57;101979.72;;;12.57;43.72
69219;BME280;56232;53.384;-2.732;2022-09-19T02:08:23;101977.62;;;11.75;43.83
69219;BME280;56232;53.384;-2.732;2022-09-19T02:10:47;101975.41;;;12.04;44.00
69219;BME280;56232;53.384;-2.732;2022-09-19T02:13:11;101973.68;;;12.38;43.97
69219;BME280;56232;53.384;-2.732;2022-09-19T02:15:35;101975.10;;;11.64;43.84
69219;BME280;56232;53.384;-2.732;2022-09-19T02:18:05;101974.84;;;12.69;43.75
69219;BME280;56232;53.384;-2.732;2022-09-19T02:20:29;101975.24;;;11.53;43.89
69219;BME280;56232;53.384;-2.732;2022-09-19T02:22:56;101975.15;;;11.12;43.10
69219;BME280;56232;53.384;-2.732;2022-09-19T02:25:20;101972.98;;;11.70;43.81
69219;BME280;56232;53.384;-2.732;2022-09-19T02:27:45;101971.47;;;11.77;43.94
69219;BME280;56232;53.384;-2.732;2022-09-19T02:30:10;101968.38;;;12.34;44.07
69219;BME280;56232;53.384;-2.732;2022-09-19T02:32:35;101969.10;;;11.93;43.18
69219;BME280;56232;53.384;-2.732;2022-09-19T02:35:01;101974.87;;;13.18;42.70
69219;BME280;56232;53.384;-2.732;2022-09-19T02:37:28;101975.49;;;12.08;41.84
69219;BME280;56232;53.384;-2.732;2022-09-19T02:39:58;101976.61;;;12.23;41.91
69219;BME280;56232;53.384;-2.732;2022-09-19T02:42:22;101976.78;;;12.02;42.08
69219;BME280;56232;53.384;-2.732;2022-09-19T02:44:52;101979.46;;;12.78;42.17
69219;BME280;56232;53.384;-2.732;2022-09-19T02:47:13;101977.72;;;13.67;42.10
69219;BME280;56232;53.384;-2.732;2022-09-19T02:49:38;101975.19;;;13.26;41.97
69219;BME280;56232;53.384;-2.732;2022-09-19T02:52:03;101974.70;;;12.74;42.29
69219;BME280;56232;53.384;-2.732;2022-09-19T02:54:29;101972.57;;;12.68;42.74
69219;BME280;56232;53.384;-2.732;2022-09-19T02:56:55;101970.49;;;13.32;42.66
69219;BME280;56232;53.384;-2.732;2022-09-19T02:59:21;101970.25;;;12.93;42.71
69219;BME280;56232;53.384;-2.732;2022-09-19T03:01:47;101965.55;;;13.59;42.57
69219;BME280;56232;53.384;-2.732;2022-09-19T03:04:11;101966.26;;;13.76;42.41
69219;BME280;56232;53.384;-2.732;2022-09-19T03:06:37;101966.03;;;13.37;42.51
69219;BME280;56232;53.384;-2.732;2022-09-19T03:09:02;101970.72;;;13.95;42.19
69219;BME280;56232;53.384;-2.732;2022-09-19T03:11:27;101976.20;;;14.01;41.62
69219;BME280;56232;53.384;-2.732;2022-09-19T03:13:52;101978.68;;;13.56;41.20
69219;BME280;56232;53.384;-2.732;2022-09-19T03:16:19;101979.41;;;12.84;41.58
69219;BME280;56232;53.384;-2.732;2022-09-19T03:18:44;101982.50;;;13.14;41.64
69219;BME280;56232;53.384;-2.732;2022-09-19T03:21:10;101979.60;;;13.46;42.15
69219;BME280;56232;53.384;-2.732;2022-09-19T03:23:37;101979.06;;;12.53;42.14
69219;BME280;56232;53.384;-2.732;2022-09-19T03:25:59;101980.08;;;13.65;42.10
69219;BME280;56232;53.384;-2.732;2022-09-19T03:28:25;101978.61;;;13.40;42.09
69219;BME280;56232;53.384;-2.732;2022-09-19T03:30:50;101975.58;;;13.08;41.89
69219;BME280;56232;53.384;-2.732;2022-09-19T03:33:16;101976.71;;;13.19;42.16
69219;BME280;56232;53.384;-2.732;2022-09-19T03:35:42;101976.11;;;13.60;41.94
69219;BME280;56232;53.384;-2.732;2022-09-19T03:38:07;101973.64;;;13.89;42.26
69219;BME280;56232;53.384;-2.732;2022-09-19T03:40:33;101967.63;;;13.28;42.44
69219;BME280;56232;53.384;-2.732;2022-09-19T03:42:59;101963.91;;;13.80;42.41
69219;BME280;56232;53.384;-2.732;2022-09-19T03:45:24;101962.61;;;12.75;42.07
69219;BME280;56232;53.384;-2.732;2022-09-19T03:47:50;101961.81;;;13.72;42.07
69219;BME280;56232;53.384;-2.732;2022-09-19T03:50:16;101963.93;;;12.85;41.79
69219;BME280;56232;53.384;-2.732;2022-09-19T03:52:41;101963.15;;;13.45;41.47
69219;BME280;56232;53.384;-2.732;2022-09-19T03:55:07;101962.67;;;12.40;40.55
69219;BME280;56232;53.384;-2.732;2022-09-19T03:57:32;101961.24;;;13.55;40.55
69219;BME280;56232;53.384;-2.732;2022-09-19T03:59:59;101959.93;;;13.57;39.44
69219;BME280;56232;53.384;-2.732;2022-09-19T04:02:24;101962.84;;;13.07;40.22
69219;BME280;56232;53.384;-2.732;2022-09-19T04:04:49;101963.43;;;13.60;39.75
69219;BME280;56232;53.384;-2.732;2022-09-19T04:07:15;101964.54;;;13.60;40.52
69219;BME280;56232;53.384;-2.732;2022-09-19T04:09:41;101964.21;;;13.06;41.15
69219;BME280;56232;53.384;-2.732;2022-09-19T04:12:06;101966.17;;;13.58;41.51
69219;BME280;56232;53.384;-2.732;2022-09-19T04:14:32;101969.50;;;13.55;41.50
69219;BME280;56232;53.384;-2.732;2022-09-19T04:16:58;101972.64;;;14.06;41.58
69219;BME280;56232;53.384;-2.732;2022-09-19T04:19:23;101973.53;;;13.17;41.66
69219;BME280;56232;53.384;-2.732;2022-09-19T04:21:49;101973.25;;;13.59;41.72
69219;BME280;56232;53.384;-2.732;2022-09-19T04:24:15;101973.11;;;13.09;41.61
69219;BME280;56232;53.384;-2.732;2022-09-19T04:26:40;101972.58;;;12.74;41.84
69219;BME280;56232;53.384;-2.732;2022-09-19T04:29:06;101973.77;;;12.53;40.75
69219;BME280;56232;53.384;-2.732;2022-09-19T04:31:32;101972.51;;;12.86;41.35
69219;BME280;56232;53.384;-2.732;2022-09-19T04:33:58;101971.96;;;12.81;41.34
69219;BME280;56232;53.384;-2.732;2022-09-19T04:36:23;101974.68;;;12.77;40.54
69219;BME280;56232;53.384;-2.732;2022-09-19T04:38:49;101977.03;;;12.58;40.59
69219;BME280;56232;53.384;-2.732;2022-09-19T04:41:14;101976.28;;;12.23;40.97
69219;BME280;56232;53.384;-2.732;2022-09-19T04:43:40;101974.66;;;12.81;41.03
69219;BME280;56232;53.384;-2.732;2022-09-19T04:46:05;101972.46;;;12.42;41.04
69219;BME280;56232;53.384;-2.732;2022-09-19T04:48:31;101972.62;;;12.40;40.74
69219;BME280;56232;53.384;-2.732;2022-09-19T04:50:57;101974.52;;;12.87;40.66
69219;BME280;56232;53.384;-2.732;2022-09-19T04:53:24;101975.44;;;12.36;40.41
69219;BME280;56232;53.384;-2.732;2022-09-19T04:55:49;101974.86;;;12.88;40.40
69219;BME280;56232;53.384;-2.732;2022-09-19T04:58:13;101976.22;;;12.47;40.43
69219;BME280;56232;53.384;-2.732;2022-09-19T05:00:39;101977.43;;;13.05;40.32
69219;BME280;56232;53.384;-2.732;2022-09-19T05:03:06;101979.37;;;12.64;40.31
69219;BME280;56232;53.384;-2.732;2022-09-19T05:05:30;101977.70;;;12.69;40.29
69219;BME280;56232;53.384;-2.732;2022-09-19T05:07:56;101976.55;;;13.23;40.23
69219;BME280;56232;53.384;-2.732;2022-09-19T05:10:21;101976.16;;;13.26;40.18
69219;BME280;56232;53.384;-2.732;2022-09-19T05:12:47;101974.84;;;13.11;40.06
69219;BME280;56232;53.384;-2.732;2022-09-19T05:15:13;101975.85;;;13.05;40.19
69219;BME280;56232;53.384;-2.732;2022-09-19T05:17:38;101979.10;;;13.02;40.14
69219;BME280;56232;53.384;-2.732;2022-09-19T05:20:05;101980.83;;;13.02;40.14
69219;BME280;56232;53.384;-2.732;2022-09-19T05:22:30;101978.09;;;12.01;40.09
69219;BME280;56232;53.384;-2.732;2022-09-19T05:24:56;101980.51;;;13.03;40.18
69219;BME280;56232;53.384;-2.732;2022-09-19T05:27:21;101978.82;;;13.06;40.17
69219;BME280;56232;53.384;-2.732;2022-09-19T05:29:46;101983.26;;;12.71;40.01
69219;BME280;56232;53.384;-2.732;2022-09-19T05:32:12;101987.25;;;13.24;40.09
69219;BME280;56232;53.384;-2.732;2022-09-19T05:34:38;101985.59;;;13.31;40.20
69219;BME280;56232;53.384;-2.732;2022-09-19T05:37:03;101984.02;;;13.36;40.49
69219;BME280;56232;53.384;-2.732;2022-09-19T05:39:29;101982.71;;;13.07;40.51
69219;BME280;56232;53.384;-2.732;2022-09-19T05:41:55;101982.08;;;13.18;40.87
69219;BME280;56232;53.384;-2.732;2022-09-19T05:44:21;101984.26;;;12.80;41.08
69219;BME280;56232;53.384;-2.732;2022-09-19T05:46:46;101986.59;;;13.51;41.21
69219;BME280;56232;53.384;-2.732;2022-09-19T05:49:12;101989.15;;;13.20;41.37
69219;BME280;56232;53.384;-2.732;2022-09-19T05:51:37;101991.45;;;13.25;41.68
69219;BME280;56232;53.384;-2.732;2022-09-19T05:54:03;101990.24;;;13.84;41.96
69219;BME280;56232;53.384;-2.732;2022-09-19T05:56:29;101991.46;;;13.95;42.18
69219;BME280;56232;53.384;-2.732;2022-09-19T05:58:54;101992.28;;;13.56;42.26
69219;BME280;56232;53.384;-2.732;2022-09-19T06:01:20;101996.73;;;14.24;42.32
69219;BME280;56232;53.384;-2.732;2022-09-19T06:03:46;101993.76;;;13.95;42.34
69219;BME280;56232;53.384;-2.732;2022-09-19T06:06:14;101996.78;;;14.15;42.38
69219;BME280;56232;53.384;-2.732;2022-09-19T06:08:38;101994.21;;;14.33;42.25
69219;BME280;56232;53.384;-2.732;2022-09-19T06:11:03;101992.31;;;14.48;42.26
69219;BME280;56232;53.384;-2.732;2022-09-19T06:13:29;101991.96;;;13.95;41.60
69219;BME280;56232;53.384;-2.732;2022-09-19T06:15:54;101991.96;;;14.50;41.17
69219;BME280;56232;53.384;-2.732;2022-09-19T06:18:20;101994.03;;;14.36;40.11
69219;BME280;56232;53.384;-2.732;2022-09-19T06:20:45;101993.65;;;14.37;40.48
69219;BME280;56232;53.384;-2.732;2022-09-19T06:23:11;101996.03;;;14.86;41.06
69219;BME280;56232;53.384;-2.732;2022-09-19T06:25:37;101994.60;;;14.50;41.48
69219;BME280;56232;53.384;-2.732;2022-09-19T06:28:03;101995.34;;;13.99;41.45
69219;BME280;56232;53.384;-2.732;2022-09-19T06:30:27;102001.51;;;14.18;41.84
69219;BME280;56232;53.384;-2.732;2022-09-19T06:32:53;102005.12;;;13.84;42.06
69219;BME280;56232;53.384;-2.732;2022-09-19T06:35:18;102004.93;;;15.06;41.64
69219;BME280;56232;53.384;-2.732;2022-09-19T06:37:42;102003.62;;;14.12;41.92
69219;BME280;56232;53.384;-2.732;2022-09-19T06:40:08;102007.88;;;14.68;42.07
69219;BME280;56232;53.384;-2.732;2022-09-19T06:42:34;102008.06;;;15.32;42.26
69219;BME280;56232;53.384;-2.732;2022-09-19T06:44:59;102006.59;;;14.84;42.41
69219;BME280;56232;53.384;-2.732;2022-09-19T06:47:24;102013.08;;;15.57;42.50
69219;BME280;56232;53.384;-2.732;2022-09-19T06:49:49;102014.93;;;15.02;42.51
69219;BME280;56232;53.384;-2.732;2022-09-19T06:52:15;102016.35;;;14.71;42.38
69219;BME280;56232;53.384;-2.732;2022-09-19T06:54:40;102020.81;;;14.79;42.38
69219;BME280;56232;53.384;-2.732;2022-09-19T06:57:05;102025.46;;;15.22;42.65
69219;BME280;56232;53.384;-2.732;2022-09-19T06:59:30;102026.15;;;14.38;42.13
69219;BME280;56232;53.384;-2.732;2022-09-19T07:01:58;102027.67;;;13.96;42.75
69219;BME280;56232;53.384;-2.732;2022-09-19T07:04:21;102026.80;;;14.54;43.02
69219;BME280;56232;53.384;-2.732;2022-09-19T07:06:47;102028.67;;;14.20;42.51
69219;BME280;56232;53.384;-2.732;2022-09-19T07:09:12;102031.50;;;14.33;42.14
69219;BME280;56232;53.384;-2.732;2022-09-19T07:11:38;102034.67;;;14.41;42.41
69219;BME280;56232;53.384;-2.732;2022-09-19T07:14:04;102035.05;;;14.60;42.44
69219;BME280;56232;53.384;-2.732;2022-09-19T07:16:28;102033.82;;;14.88;41.91
69219;BME280;56232;53.384;-2.732;2022-09-19T07:18:54;102030.34;;;15.20;41.24
69219;BME280;56232;53.384;-2.732;2022-09-19T07:21:19;102026.80;;;14.92;41.40
69219;BME280;56232;53.384;-2.732;2022-09-19T07:23:45;102027.57;;;15.86;41.01
69219;BME280;56232;53.384;-2.732;2022-09-19T07:26:10;102022.76;;;16.10;40.26
69219;BME280;56232;53.384;-2.732;2022-09-19T07:28:35;102022.06;;;15.99;39.57
69219;BME280;56232;53.384;-2.732;2022-09-19T07:31:01;102024.31;;;15.93;38.58
69219;BME280;56232;53.384;-2.732;2022-09-19T07:33:26;102025.34;;;16.34;38.32
69219;BME280;56232;53.384;-2.732;2022-09-19T07:35:54;102024.06;;;16.59;39.37
69219;BME280;56232;53.384;-2.732;2022-09-19T07:38:18;102027.10;;;16.97;39.69
69219;BME280;56232;53.384;-2.732;2022-09-19T07:40:42;102030.10;;;17.01;38.18
69219;BME280;56232;53.384;-2.732;2022-09-19T07:43:09;102031.55;;;16.86;39.34
69219;BME280;56232;53.384;-2.732;2022-09-19T07:45:36;102036.82;;;17.28;39.38
69219;BME280;56232;53.384;-2.732;2022-09-19T07:47:59;102040.88;;;17.35;38.07
69219;BME280;56232;53.384;-2.732;2022-09-19T07:50:24;102046.64;;;17.14;37.71
69219;BME280;56232;53.384;-2.732;2022-09-19T07:52:58;102045.12;;;17.56;38.62
69219;BME280;56232;53.384;-2.732;2022-09-19T07:55:15;102038.02;;;17.74;38.83
69219;BME280;56232;53.384;-2.732;2022-09-19T07:57:49;102039.79;;;16.87;37.56
69219;BME280;56232;53.384;-2.732;2022-09-19T08:00:07;102038.42;;;15.98;38.65
69219;BME280;56232;53.384;-2.732;2022-09-19T08:02:32;102040.66;;;16.65;39.39
69219;BME280;56232;53.384;-2.732;2022-09-19T08:04:58;102041.02;;;17.17;39.56
69219;BME280;56232;53.384;-2.732;2022-09-19T08:07:23;102042.04;;;16.86;40.14
69219;BME280;56232;53.384;-2.732;2022-09-19T08:09:49;102038.44;;;16.57;39.48
69219;BME280;56232;53.384;-2.732;2022-09-19T08:12:14;102040.51;;;17.44;38.34
69219;BME280;56232;53.384;-2.732;2022-09-19T08:14:40;102042.97;;;17.12;38.23
69219;BME280;56232;53.384;-2.732;2022-09-19T08:17:05;102046.61;;;17.31;38.46
69219;BME280;56232;53.384;-2.732;2022-09-19T08:19:30;102050.36;;;18.22;38.33
69219;BME280;56232;53.384;-2.732;2022-09-19T08:21:57;102051.41;;;17.79;38.14
69219;BME280;56232;53.384;-2.732;2022-09-19T08:24:22;102056.74;;;16.80;38.04
69219;BME280;56232;53.384;-2.732;2022-09-19T08:26:47;102059.04;;;17.90;38.07
69219;BME280;56232;53.384;-2.732;2022-09-19T08:29:13;102059.81;;;17.81;37.72
69219;BME280;56232;53.384;-2.732;2022-09-19T08:31:38;102063.61;;;17.86;36.85
69219;BME280;56232;53.384;-2.732;2022-09-19T08:34:04;102063.79;;;17.95;38.03
69219;BME280;56232;53.384;-2.732;2022-09-19T08:36:29;102067.52;;;17.89;36.42
69219;BME280;56232;53.384;-2.732;2022-09-19T08:38:56;102067.21;;;17.70;37.17
69219;BME280;56232;53.384;-2.732;2022-09-19T08:41:34;102066.62;;;17.65;37.03
69219;BME280;56232;53.384;-2.732;2022-09-19T08:43:53;102067.43;;;17.71;37.51
69219;BME280;56232;53.384;-2.732;2022-09-19T08:46:15;102069.69;;;17.62;36.66
69219;BME280;56232;53.384;-2.732;2022-09-19T08:48:45;102072.10;;;17.15;37.21
69219;BME280;56232;53.384;-2.732;2022-09-19T08:51:06;102072.37;;;17.74;36.31
69219;BME280;56232;53.384;-2.732;2022-09-19T08:53:31;102076.36;;;17.84;37.12
69219;BME280;56232;53.384;-2.732;2022-09-19T08:55:56;102074.98;;;17.68;37.09
69219;BME280;56232;53.384;-2.732;2022-09-19T08:58:22;102075.71;;;17.42;36.80
69219;BME280;56232;53.384;-2.732;2022-09-19T09:00:46;102078.00;;;17.39;37.59
69219;BME280;56232;53.384;-2.732;2022-09-19T09:03:14;102082.96;;;17.56;37.83
69219;BME280;56232;53.384;-2.732;2022-09-19T09:05:45;102086.54;;;17.86;36.73
69219;BME280;56232;53.384;-2.732;2022-09-19T09:08:08;102088.53;;;18.20;36.01
69219;BME280;56232;53.384;-2.732;2022-09-19T09:10:39;102088.20;;;17.42;33.88
69219;BME280;56232;53.384;-2.732;2022-09-19T09:13:04;102086.12;;;18.53;35.63
69219;BME280;56232;53.384;-2.732;2022-09-19T09:15:23;102084.82;;;19.58;33.55
69219;BME280;56232;53.384;-2.732;2022-09-19T09:17:52;102083.85;;;18.89;33.40
69219;BME280;56232;53.384;-2.732;2022-09-19T09:20:18;102084.12;;;19.57;33.36
69219;BME280;56232;53.384;-2.732;2022-09-19T09:22:39;102087.26;;;19.43;33.98
69219;BME280;56232;53.384;-2.732;2022-09-19T09:25:09;102089.45;;;20.25;34.09
69219;BME280;56232;53.384;-2.732;2022-09-19T09:27:33;102086.55;;;19.69;32.32
69219;BME280;56232;53.384;-2.732;2022-09-19T09:29:55;102088.17;;;19.79;32.59
69219;BME280;56232;53.384;-2.732;2022-09-19T09:32:23;102087.86;;;19.94;33.78
69219;BME280;56232;53.384;-2.732;2022-09-19T09:34:48;102089.23;;;19.67;33.73
69219;BME280;56232;53.384;-2.732;2022-09-19T09:37:15;102086.76;;;19.46;33.89
69219;BME280;56232;53.384;-2.732;2022-09-19T09:39:39;102090.89;;;18.64;34.36
69219;BME280;56232;53.384;-2.732;2022-09-19T09:42:02;102088.43;;;19.88;35.08
69219;BME280;56232;53.384;-2.732;2022-09-19T09:44:34;102087.31;;;20.15;34.50
69219;BME280;56232;53.384;-2.732;2022-09-19T09:47:00;102086.33;;;19.61;34.66
69219;BME280;56232;53.384;-2.732;2022-09-19T09:49:20;102089.60;;;19.98;32.86
69219;BME280;56232;53.384;-2.732;2022-09-19T09:51:51;102091.74;;;20.04;33.09
69219;BME280;56232;53.384;-2.732;2022-09-19T09:54:18;102090.24;;;20.29;33.06
69219;BME280;56232;53.384;-2.732;2022-09-19T09:56:40;102090.85;;;19.54;32.40
69219;BME280;56232;53.384;-2.732;2022-09-19T09:59:10;102088.62;;;20.92;32.44
69219;BME280;56232;53.384;-2.732;2022-09-19T10:01:33;102088.77;;;21.10;32.76
69219;BME280;56232;53.384;-2.732;2022-09-19T10:03:55;102088.45;;;21.31;31.99
69219;BME280;56232;53.384;-2.732;2022-09-19T10:06:20;102091.44;;;21.65;32.82
69219;BME280;56232;53.384;-2.732;2022-09-19T10:08:44;102092.25;;;20.77;32.32
69219;BME280;56232;53.384;-2.732;2022-09-19T10:11:12;102093.29;;;21.62;32.38
69219;BME280;56232;53.384;-2.732;2022-09-19T10:13:37;102094.18;;;21.67;32.49
69219;BME280;56232;53.384;-2.732;2022-09-19T10:16:00;102096.38;;;21.47;31.66
69219;BME280;56232;53.384;-2.732;2022-09-19T10:18:39;102095.18;;;21.70;31.46
69219;BME280;56232;53.384;-2.732;2022-09-19T10:20:52;102093.49;;;20.85;30.77
69219;BME280;56232;53.384;-2.732;2022-09-19T10:23:19;102096.33;;;20.88;30.25
69219;BME280;56232;53.384;-2.732;2022-09-19T10:25:42;102098.03;;;20.96;30.58
69219;BME280;56232;53.384;-2.732;2022-09-19T10:28:16;102102.14;;;19.97;32.10
69219;BME280;56232;53.384;-2.732;2022-09-19T10:30:35;102105.19;;;20.33;31.63
69219;BME280;56232;53.384;-2.732;2022-09-19T10:33:16;102103.54;;;20.15;32.07
69219;BME280;56232;53.384;-2.732;2022-09-19T10:35:27;102098.61;;;20.20;31.83
69219;BME280;56232;53.384;-2.732;2022-09-19T10:37:52;102100.89;;;19.69;31.65
69219;BME280;56232;53.384;-2.732;2022-09-19T10:40:15;102097.15;;;20.26;31.75
69219;BME280;56232;53.384;-2.732;2022-09-19T10:42:41;102095.70;;;20.24;32.15
69219;BME280;56232;53.384;-2.732;2022-09-19T10:45:14;102094.01;;;20.51;32.36
69219;BME280;56232;53.384;-2.732;2022-09-19T10:47:35;102094.66;;;19.64;32.21
69219;BME280;56232;53.384;-2.732;2022-09-19T10:50:00;102093.84;;;20.91;32.06
69219;BME280;56232;53.384;-2.732;2022-09-19T10:52:25;102093.86;;;21.34;31.65
69219;BME280;56232;53.384;-2.732;2022-09-19T10:54:50;102092.96;;;20.73;32.02
69219;BME280;56232;53.384;-2.732;2022-09-19T10:59:40;102094.19;;;22.10;31.49
69219;BME280;56232;53.384;-2.732;2022-09-19T11:02:18;102091.72;;;20.77;30.91
69219;BME280;56232;53.384;-2.732;2022-09-19T11:04:31;102091.97;;;21.82;31.17
69219;BME280;56232;53.384;-2.732;2022-09-19T11:06:59;102095.47;;;22.24;31.49
69219;BME280;56232;53.384;-2.732;2022-09-19T11:09:26;102096.97;;;22.07;31.84
69219;BME280;56232;53.384;-2.732;2022-09-19T11:11:48;102095.00;;;22.21;29.72
69219;BME280;56232;53.384;-2.732;2022-09-19T11:14:17;102092.11;;;22.83;29.29
69219;BME280;56232;53.384;-2.732;2022-09-19T11:16:42;102091.26;;;21.94;28.85
69219;BME280;56232;53.384;-2.732;2022-09-19T11:19:15;102093.06;;;21.82;28.65
69219;BME280;56232;53.384;-2.732;2022-09-19T11:21:37;102090.45;;;22.29;28.84
69219;BME280;56232;53.384;-2.732;2022-09-19T11:24:12;102090.98;;;22.28;28.76
69219;BME280;56232;53.384;-2.732;2022-09-19T11:26:29;102086.54;;;22.11;28.71
69219;BME280;56232;53.384;-2.732;2022-09-19T11:28:56;102087.09;;;21.95;29.09
69219;BME280;56232;53.384;-2.732;2022-09-19T11:31:21;102088.49;;;22.22;29.65
69219;BME280;56232;53.384;-2.732;2022-09-19T11:33:44;102088.69;;;21.36;29.52
69219;BME280;56232;53.384;-2.732;2022-09-19T11:36:08;102089.36;;;21.67;29.60
69219;BME280;56232;53.384;-2.732;2022-09-19T11:38:36;102087.62;;;20.76;29.45
69219;BME280;56232;53.384;-2.732;2022-09-19T11:41:03;102090.08;;;21.01;29.92
69219;BME280;56232;53.384;-2.732;2022-09-19T11:43:27;102089.18;;;20.63;29.96
69219;BME280;56232;53.384;-2.732;2022-09-19T11:45:55;102087.39;;;21.16;29.75
69219;BME280;56232;53.384;-2.732;2022-09-19T11:48:19;102084.46;;;21.22;30.16
69219;BME280;56232;53.384;-2.732;2022-09-19T11:50:50;102083.04;;;22.00;30.00
69219;BME280;56232;53.384;-2.732;2022-09-19T11:53:18;102081.88;;;21.26;29.75
69219;BME280;56232;53.384;-2.732;2022-09-19T11:55:35;102080.69;;;21.02;29.43
69219;BME280;56232;53.384;-2.732;2022-09-19T11:58:00;102081.33;;;21.16;29.70
69219;BME280;56232;53.384;-2.732;2022-09-19T12:00:20;102082.25;;;20.91;29.99
69219;BME280;56232;53.384;-2.732;2022-09-19T12:02:58;102082.52;;;21.05;30.03
69219;BME280;56232;53.384;-2.732;2022-09-19T12:05:14;102083.89;;;20.47;29.88
69219;BME280;56232;53.384;-2.732;2022-09-19T12:07:43;102082.27;;;20.39;29.95
69219;BME280;56232;53.384;-2.732;2022-09-19T12:10:10;102085.67;;;20.57;30.22
69219;BME280;56232;53.384;-2.732;2022-09-19T12:12:29;102081.52;;;21.02;30.16
69219;BME280;56232;53.384;-2.732;2022-09-19T12:14:55;102077.34;;;21.75;30.04
69219;BME280;56232;53.384;-2.732;2022-09-19T12:17:22;102079.12;;;20.83;29.79
69219;BME280;56232;53.384;-2.732;2022-09-19T12:19:46;102082.37;;;20.68;29.94
69219;BME280;56232;53.384;-2.732;2022-09-19T12:22:13;102079.78;;;21.36;30.25
69219;BME280;56232;53.384;-2.732;2022-09-19T12:24:38;102080.74;;;21.70;30.15
69219;BME280;56232;53.384;-2.732;2022-09-19T12:27:03;102080.93;;;20.60;30.32
69219;BME280;56232;53.384;-2.732;2022-09-19T12:29:29;102081.61;;;21.63;30.01
69219;BME280;56232;53.384;-2.732;2022-09-19T12:31:58;102080.41;;;21.72;29.84
69219;BME280;56232;53.384;-2.732;2022-09-19T12:34:26;102073.56;;;22.09;29.85
69219;BME280;56232;53.384;-2.732;2022-09-19T12:36:47;102074.23;;;22.14;29.06